Time;durP1;ratioP1;P1;durP2;ratioP2;P2;SDS_P1;SDS_P2;PMS_P1;PMS_P2;Temp;Humidity;BMP_temperature;BMP_pressure;BME280_temperature;BME280_humidity;BME280_pressure;Samples;Min_cycle;Max_cycle;Signal;HPM_P1;HPM_P2
2021/12/17 00:00:25;;;;;;;8.65;6.32;;;;;;;;;;6341635;28;20099;-84
2021/12/17 00:03:44;;;;;;;7.97;6.10;;;1.20;99.90;;;;;;6324722;28;20130;-84
2021/12/17 00:06:47;;;;;;;8.85;6.13;;;;;;;;;;6326668;28;20110;-83
2021/12/17 00:09:48;;;;;;;9.18;6.82;;;;;;;;;;6341598;28;20503;-83
2021/12/17 00:12:51;;;;;;;12.57;7.00;;;;;;;;;;6341180;28;20154;-84
2021/12/17 00:15:52;;;;;;;11.18;6.57;;;;;;;;;;6327635;28;20023;-84
2021/12/17 00:48:36;;;;;;;9.40;6.38;;;;;;;;;;6346210;28;20035;-84
2021/12/17 00:54:57;;;;;;;8.38;5.63;;;;;;;;;;6345698;28;20036;-83
2021/12/17 00:57:58;;;;;;;9.02;6.03;;;;;;;;;;6328719;28;20038;-85
2021/12/17 01:00:59;;;;;;;7.38;5.40;;;1.80;99.90;;;;;;6328805;28;20131;-83
2021/12/17 01:03:59;;;;;;;9.43;6.13;;;1.60;99.90;;;;;;6311365;28;20024;-85
2021/12/17 01:07:00;;;;;;;10.15;6.75;;;;;;;;;;6328415;28;20035;-85
2021/12/17 01:10:03;;;;;;;9.32;6.60;;;1.70;99.90;;;;;;6328415;28;20034;-83
2021/12/17 01:13:04;;;;;;;8.65;6.57;;;;;;;;;;6311712;28;20077;-85
2021/12/17 01:16:05;;;;;;;8.95;6.63;;;;;;;;;;6345438;28;20023;-84
2021/12/17 01:35:40;;;;;;;8.75;6.55;;;;;;;;;;6344988;28;20486;-85
2021/12/17 01:45:05;;;;;;;11.32;7.32;;;;;;;;;;6346288;28;20081;-85
2021/12/17 01:48:09;;;;;;;11.13;6.43;;;1.70;99.90;;;;;;6327849;28;20097;-85
2021/12/17 02:00:53;;;;;;;10.93;6.50;;;;;;;;;;6327743;28;20085;-86
2021/12/17 02:03:54;;;;;;;9.65;7.05;;;;;;;;;;6344186;28;20169;-84
2021/12/17 02:06:55;;;;;;;11.77;7.05;;;1.60;99.90;;;;;;6344418;28;20023;-84
2021/12/17 02:23:22;;;;;;;8.88;6.53;;;;;;;;;;6290893;28;20395;-84
2021/12/17 02:30:24;;;;;;;8.07;5.65;;;;;;;;;;6276306;28;20398;-83
2021/12/17 02:33:23;;;;;;;7.28;5.65;;;;;;;;;;6278597;28;20035;-84
2021/12/17 02:36:28;;;;;;;8.60;5.88;;;2.80;99.90;;;;;;6274289;28;20041;-84
2021/12/17 02:45:58;;;;;;;8.00;6.07;;;2.60;99.90;;;;;;6276258;28;20036;-85
2021/12/17 02:48:59;;;;;;;7.50;5.68;;;;;;;;;;6257732;28;20043;-84
2021/12/17 02:52:02;;;;;;;7.20;5.45;;;2.80;99.90;;;;;;6273695;28;20575;-86
2021/12/17 02:55:06;;;;;;;6.88;5.38;;;3.00;99.90;;;;;;6257193;28;20573;-86
2021/12/17 02:58:06;;;;;;;6.53;5.15;;;3.10;99.90;;;;;;6284165;28;20093;-84
2021/12/17 03:01:08;;;;;;;5.90;4.90;;;3.20;99.90;;;;;;6326310;28;20484;-85
2021/12/17 03:04:08;;;;;;;5.95;4.80;;;3.20;99.90;;;;;;6325636;28;20024;-85
2021/12/17 03:07:11;;;;;;;6.55;5.45;;;3.40;99.90;;;;;;6308336;28;20446;-84
2021/12/17 03:10:13;;;;;;;6.78;5.18;;;;;;;;;;6341946;28;20020;-84
2021/12/17 03:13:14;;;;;;;;;;;3.60;99.90;;;;;;6326449;28;20039;-85
2021/12/17 03:16:31;;;;;;;6.57;4.97;;;3.80;99.90;;;;;;6325314;28;19904;-85
2021/12/17 03:26:11;;;;;;;6.25;4.57;;;5.90;99.90;;;;;;6328032;28;20027;-86
2021/12/17 03:29:12;;;;;;;4.55;3.97;;;3.50;99.90;;;;;;6342432;28;20027;-85
2021/12/17 03:32:12;;;;;;;7.53;4.65;;;;;;;;;;6308784;28;20431;-86
2021/12/17 03:35:13;;;;;;;6.90;4.82;;;3.20;99.90;;;;;;6325204;28;20055;-85
2021/12/17 03:38:14;;;;;;;7.57;4.70;;;;;;;;;;6324588;28;20043;-85
2021/12/17 03:41:26;;;;;;;5.47;4.25;;;;;;;;;;6325278;28;20469;-84
2021/12/17 03:44:26;;;;;;;5.47;4.20;;;3.00;99.90;;;;;;6342372;28;20045;-84
2021/12/17 03:47:27;;;;;;;6.03;4.72;;;;;;;;;;6325241;28;20024;-84
2021/12/17 03:50:28;;;;;;;5.32;4.18;;;2.90;99.90;;;;;;6341358;28;20038;-85
2021/12/17 03:53:29;;;;;;;6.47;4.13;;;2.80;99.90;;;;;;6324831;28;20027;-86
2021/12/17 03:56:29;;;;;;;6.28;4.47;;;5.70;99.90;;;;;;6307943;28;20028;-85
2021/12/17 03:59:30;;;;;;;6.78;5.13;;;3.00;99.90;;;;;;6307890;28;20130;-85
2021/12/17 04:02:31;;;;;;;5.80;4.63;;;;;;;;;;6311471;28;20112;-85
2021/12/17 04:05:31;;;;;;;5.40;4.32;;;2.90;99.90;;;;;;6341972;28;20024;-86
2021/12/17 04:08:32;;;;;;;5.10;3.95;;;3.00;99.90;;;;;;6324361;28;20027;-84
2021/12/17 04:11:33;;;;;;;4.63;3.80;;;4.30;99.90;;;;;;6324191;28;20059;-85
2021/12/17 04:14:42;;;;;;;4.65;3.33;;;3.50;99.90;;;;;;6307705;28;20032;-84
2021/12/17 04:17:47;;;;;;;4.60;3.97;;;5.00;99.90;;;;;;6341373;28;20118;-84
2021/12/17 04:20:47;;;;;;;4.95;4.13;;;5.80;99.90;;;;;;6325284;28;20039;-85
2021/12/17 04:23:49;;;;;;;6.13;4.55;;;3.50;99.90;;;;;;6341160;28;20055;-85
2021/12/17 04:26:50;;;;;;;4.95;3.90;;;3.40;99.90;;;;;;6341132;28;20416;-85
2021/12/17 04:29:52;;;;;;;6.35;4.18;;;4.10;99.90;;;;;;6331088;28;20122;-84
2021/12/17 04:32:53;;;;;;;5.00;3.35;;;;;;;;;;6324378;28;20389;-84
2021/12/17 04:35:54;;;;;;;3.77;3.40;;;3.40;99.90;;;;;;6324638;28;20110;-85
2021/12/17 04:38:56;;;;;;;4.65;3.72;;;;;;;;;;6340354;28;20056;-85
2021/12/17 04:42:05;;;;;;;4.68;3.58;;;3.70;99.90;;;;;;6340923;28;20114;-85
2021/12/17 04:45:06;;;;;;;4.38;3.42;;;3.80;99.90;;;;;;6341049;28;20028;-83
2021/12/17 04:58:05;;;;;;;9.25;5.80;;;3.40;99.90;;;;;;6329632;28;20481;-84
2021/12/17 05:01:12;;;;;;;5.93;3.75;;;;;;;;;;6324082;28;20741;-84
2021/12/17 05:04:13;;;;;;;5.18;3.50;;;;;;;;;;6329495;28;20019;-83
2021/12/17 05:07:14;;;;;;;3.88;3.30;;;;;;;;;;6328605;28;20493;-84
2021/12/17 05:10:29;;;;;;;4.97;3.70;;;;;;;;;;6328770;28;20024;-84
2021/12/17 05:18:16;;;;;;;4.28;3.47;;;3.80;99.90;;;;;;6345367;28;20015;-83
2021/12/17 05:20:34;;;;;;;4.25;3.22;;;4.80;99.90;;;;;;6344372;28;20046;-85
2021/12/17 05:23:37;;;;;;;4.40;3.40;;;3.60;99.90;;;;;;6344322;28;20034;-84
2021/12/17 05:26:38;;;;;;;5.82;4.22;;;3.60;99.90;;;;;;6343846;28;20540;-84
2021/12/17 05:29:39;;;;;;;4.07;3.28;;;;;;;;;;6311071;28;20080;-84
2021/12/17 05:32:40;;;;;;;4.18;3.30;;;;;;;;;;6327503;28;20036;-84
2021/12/17 05:35:40;;;;;;;5.55;3.80;;;3.30;99.90;;;;;;6326977;28;20034;-84
2021/12/17 05:38:41;;;;;;;4.28;3.47;;;3.50;99.90;;;;;;6310579;28;20048;-84
2021/12/17 05:41:42;;;;;;;4.78;3.58;;;3.70;99.90;;;;;;6333203;28;20138;-84
2021/12/17 05:44:50;;;;;;;5.10;3.97;;;;;;;;;;6344381;28;20072;-83
2021/12/17 05:47:51;;;;;;;30.40;15.73;;;3.70;99.90;;;;;;6328601;28;20461;-83
2021/12/17 05:50:55;;;;;;;12.70;8.32;;;3.70;99.90;;;;;;6311142;28;20016;-84
2021/12/17 05:53:56;;;;;;;10.23;6.88;;;3.20;99.90;;;;;;6344230;28;20028;-86
2021/12/17 05:56:57;;;;;;;11.80;9.10;;;3.60;99.90;;;;;;6343667;28;20416;-82
2021/12/17 05:59:57;;;;;;;12.50;9.25;;;3.20;99.90;;;;;;6327519;28;20124;-82
2021/12/17 06:02:58;;;;;;;14.20;10.10;;;;;;;;;;6310130;28;20028;-82
2021/12/17 06:05:59;;;;;;;14.57;10.15;;;2.50;99.90;;;;;;6343910;28;20070;-83
2021/12/17 06:09:05;;;;;;;15.43;9.98;;;;;;;;;;6343917;28;20396;-81
2021/12/17 06:12:06;;;;;;;16.88;11.35;;;1.90;99.90;;;;;;6344265;28;20035;-83
2021/12/17 06:15:09;;;;;;;15.98;10.65;;;2.10;99.90;;;;;;6345038;28;20042;-82
2021/12/17 06:18:09;;;;;;;;;;;2.00;99.90;;;;;;6326556;28;20462;-83
2021/12/17 06:21:11;;;;;;;18.55;12.23;;;;;;;;;;6343576;28;19904;-83
2021/12/17 06:24:11;;;;;;;15.43;10.77;;;1.40;99.90;;;;;;6343667;28;20019;-84
2021/12/17 06:27:13;;;;;;;16.95;11.70;;;1.60;99.90;;;;;;6308775;28;20116;-84
2021/12/17 06:30:14;;;;;;;17.27;11.63;;;1.50;99.90;;;;;;6309573;28;20031;-83
2021/12/17 06:33:15;;;;;;;16.75;12.25;;;;;;;;;;6326608;28;20035;-83
2021/12/17 06:36:16;;;;;;;16.60;12.70;;;;;;;;;;6343015;28;20435;-82
2021/12/17 06:39:17;;;;;;;16.38;11.68;;;;;;;;;;6341805;28;20055;-82
2021/12/17 06:42:18;;;;;;;16.10;12.00;;;;;;;;;;6326042;28;20028;-80
2021/12/17 06:45:34;;;;;;;18.08;12.75;;;1.30;99.90;;;;;;6342471;28;20035;-80
2021/12/17 06:48:35;;;;;;;16.40;11.77;;;;;;;;;;6344446;28;20786;-79
2021/12/17 06:58:42;;;;;;;20.70;13.45;;;1.10;99.90;;;;;;6341626;28;20086;-79
2021/12/17 07:11:50;;;;;;;18.40;11.95;;;;;;;;;;6342796;28;20461;-77
2021/12/17 07:21:56;;;;;;;17.38;11.77;;;;;;;;;;6342213;28;20051;-78
2021/12/17 07:28:30;;;;;;;18.33;11.73;;;;;;;;;;6343403;28;20032;-78
2021/12/17 07:41:05;;;;;;;22.00;14.88;;;;;;;;;;6342931;28;20031;-79
2021/12/17 07:44:06;;;;;;;20.35;14.02;;;;;;;;;;6341745;28;20023;-78
2021/12/17 07:47:07;;;;;;;22.00;14.27;;;;;;;;;;6343394;28;20024;-78
2021/12/17 07:50:08;;;;;;;20.52;12.55;;;0.80;99.90;;;;;;6342729;28;20078;-79
2021/12/17 07:53:09;;;;;;;23.92;15.52;;;;;;;;;;6341926;28;20034;-78
2021/12/17 07:56:11;;;;;;;32.08;20.73;;;0.40;99.90;;;;;;6342712;28;20394;-78
2021/12/17 07:59:12;;;;;;;24.95;16.55;;;;;;;;;;6341839;28;20070;-77
2021/12/17 08:02:13;;;;;;;57.92;37.47;;;;;;;;;;6343112;28;20031;-78
2021/12/17 08:05:15;;;;;;;21.65;15.93;;;2.40;99.90;;;;;;6343299;28;20101;-78
2021/12/17 08:08:16;;;;;;;17.63;13.48;;;;;;;;;;6342818;28;20071;-78
2021/12/17 08:11:17;;;;;;;16.63;11.15;;;;;;;;;;6341882;28;20049;-79
2021/12/17 08:14:17;;;;;;;15.98;11.63;;;4.80;99.90;;;;;;6342476;28;20110;-79
2021/12/17 08:33:19;;;;;;;15.75;11.55;;;7.40;99.90;;;;;;6342665;28;20328;-78
2021/12/17 08:36:20;;;;;;;15.73;11.95;;;7.70;99.90;;;;;;6342102;28;20024;-79
2021/12/17 08:39:21;;;;;;;14.93;11.77;;;7.30;99.90;;;;;;6345716;28;20094;-79
2021/12/17 08:42:21;;;;;;;15.32;11.98;;;7.40;99.90;;;;;;6347284;28;20401;-78
2021/12/17 08:45:22;;;;;;;14.70;11.93;;;7.50;99.90;;;;;;6345845;28;20429;-79
2021/12/17 08:48:23;;;;;;;19.08;12.35;;;;;;;;;;6328726;28;20016;-79
2021/12/17 08:51:24;;;;;;;24.45;15.93;;;;;;;;;;6347318;28;20061;-78
2021/12/17 08:54:26;;;;;;;20.20;13.45;;;;;;;;;;6346961;28;20433;-78
2021/12/17 08:57:26;;;;;;;17.38;12.15;;;8.80;99.90;;;;;;6347177;28;20544;-78
2021/12/17 09:00:27;;;;;;;21.17;12.82;;;8.80;99.90;;;;;;6345660;28;20047;-78
2021/12/17 09:03:28;;;;;;;17.48;12.18;;;;;;;;;;6328647;28;20457;-80
2021/12/17 09:06:29;;;;;;;16.17;12.02;;;8.90;99.90;;;;;;6345315;28;20027;-79
2021/12/17 09:09:29;;;;;;;14.48;11.10;;;9.30;99.90;;;;;;6346695;28;20042;-79
2021/12/17 09:12:30;;;;;;;13.38;10.20;;;9.60;99.90;;;;;;6345384;28;20023;-79
2021/12/17 09:15:31;;;;;;;12.15;9.65;;;9.60;99.90;;;;;;6328223;28;20485;-79
2021/12/17 09:18:32;;;;;;;13.25;9.65;;;10.30;99.90;;;;;;6328480;28;20074;-79
2021/12/17 09:21:32;;;;;;;12.85;10.45;;;9.80;99.90;;;;;;6328250;28;20028;-78
2021/12/17 09:24:33;;;;;;;14.35;11.05;;;10.20;99.90;;;;;;6345141;28;20028;-79
2021/12/17 09:27:34;;;;;;;15.13;10.60;;;9.90;99.90;;;;;;6346553;28;20365;-79
2021/12/17 09:30:34;;;;;;;12.75;10.10;;;10.00;99.90;;;;;;6345084;28;20458;-80
2021/12/17 09:33:35;;;;;;;15.68;10.68;;;10.20;99.90;;;;;;6346085;28;20050;-80
2021/12/17 09:36:36;;;;;;;14.65;10.80;;;10.20;99.90;;;;;;6344901;28;20084;-79
2021/12/17 09:39:36;;;;;;;12.05;10.00;;;10.40;99.90;;;;;;6326684;28;20128;-79
2021/12/17 09:42:38;;;;;;;12.63;10.55;;;10.20;99.90;;;;;;6344545;28;20750;-80
2021/12/17 09:45:39;;;;;;;11.95;9.77;;;10.00;99.90;;;;;;6344462;28;20993;-79
2021/12/17 09:48:40;;;;;;;12.18;9.70;;;10.10;99.90;;;;;;6343674;28;20024;-79
2021/12/17 09:51:40;;;;;;;15.48;10.93;;;10.10;99.90;;;;;;6344274;28;20052;-80
2021/12/17 09:54:41;;;;;;;13.45;9.82;;;10.20;99.90;;;;;;6344335;28;20080;-79
2021/12/17 09:57:42;;;;;;;13.75;9.90;;;10.30;99.90;;;;;;6338859;28;20046;-78
2021/12/17 10:00:42;;;;;;;12.57;10.30;;;10.40;99.90;;;;;;6344130;28;20024;-78
2021/12/17 10:03:43;;;;;;;14.15;10.07;;;10.50;99.90;;;;;;6343959;28;20031;-78
2021/12/17 10:06:44;;;;;;;11.45;9.38;;;10.60;99.90;;;;;;6345485;28;20061;-78
2021/12/17 10:09:51;;;;;;;11.85;9.45;;;10.90;99.90;;;;;;6344072;28;20066;-78
2021/12/17 10:12:53;;;;;;;13.25;10.60;;;11.40;99.90;;;;;;6345471;28;20063;-78
2021/12/17 10:16:06;;;;;;;11.05;9.10;;;11.60;99.90;;;;;;6326909;28;20035;-78
2021/12/17 10:19:06;;;;;;;13.75;9.40;;;11.50;99.90;;;;;;6344987;27;20035;-79
2021/12/17 10:22:11;;;;;;;13.00;10.23;;;11.50;99.90;;;;;;6343404;28;20447;-78
2021/12/17 10:25:12;;;;;;;10.68;9.50;;;12.60;99.90;;;;;;6343849;28;20457;-78
2021/12/17 10:28:13;;;;;;;11.32;9.35;;;12.40;99.90;;;;;;6345310;28;20047;-78
2021/12/17 10:31:13;;;;;;;10.82;8.63;;;12.60;99.90;;;;;;6326639;28;20215;-78
2021/12/17 10:34:17;;;;;;;12.40;9.18;;;13.40;99.90;;;;;;6326081;28;20024;-79
2021/12/17 10:37:38;;;;;;;11.20;8.80;;;13.60;99.90;;;;;;6309884;28;20052;-79
2021/12/17 10:40:44;;;;;;;9.75;8.43;;;14.30;99.90;;;;;;6325981;28;20035;-80
2021/12/17 10:43:49;;;;;;;10.00;8.23;;;14.10;96.10;;;;;;6326783;28;20031;-79
2021/12/17 10:47:16;;;;;;;10.20;8.02;;;14.70;90.60;;;;;;6326916;28;20027;-79
2021/12/17 10:50:23;;;;;;;7.80;6.47;;;14.90;97.00;;;;;;6343341;28;20122;-80
2021/12/17 10:53:25;;;;;;;8.55;7.35;;;14.50;92.50;;;;;;6342604;28;20028;-79
2021/12/17 10:56:27;;;;;;;8.40;7.55;;;14.80;99.90;;;;;;6342971;28;20028;-80
2021/12/17 10:59:32;;;;;;;8.68;7.68;;;14.60;95.50;;;;;;6341824;28;20081;-79
2021/12/17 11:02:37;;;;;;;8.77;7.20;;;14.80;94.80;;;;;;6342770;28;20442;-79
2021/12/17 11:05:38;;;;;;;8.32;7.22;;;;;;;;;;6342785;28;20034;-79
2021/12/17 11:08:39;;;;;;;8.95;7.70;;;14.50;91.70;;;;;;6342613;28;20026;-79
2021/12/17 11:11:42;;;;;;;8.93;7.85;;;14.40;88.40;;;;;;6325602;28;20514;-79
2021/12/17 11:14:44;;;;;;;12.07;9.07;;;14.50;89.60;;;;;;6342603;28;20020;-78
2021/12/17 11:17:47;;;;;;;14.88;10.20;;;14.40;89.60;;;;;;6342163;28;20026;-81
2021/12/17 11:20:48;;;;;;;8.27;6.78;;;14.50;90.20;;;;;;6342279;28;20063;-78
2021/12/17 11:23:49;;;;;;;8.63;7.25;;;14.30;90.40;;;;;;6343633;28;20024;-79
2021/12/17 11:26:50;;;;;;;9.05;7.78;;;14.20;91.00;;;;;;6325637;28;20027;-79
2021/12/17 11:29:51;;;;;;;10.13;8.40;;;14.00;91.20;;;;;;6325560;28;20535;-78
2021/12/17 11:32:52;;;;;;;8.90;7.78;;;13.70;91.60;;;;;;6324788;28;20031;-78
2021/12/17 11:35:52;;;;;;;9.95;8.02;;;13.30;92.50;;;;;;6325413;28;20034;-78
2021/12/17 11:39:13;;;;;;;11.85;8.80;;;12.90;94.00;;;;;;6324353;28;20142;-79
2021/12/17 11:42:29;;;;;;;10.32;8.65;;;12.70;94.50;;;;;;6326699;28;20526;-79
2021/12/17 11:45:30;;;;;;;9.07;7.25;;;12.30;95.90;;;;;;6341733;28;20054;-79
2021/12/17 11:48:32;;;;;;;10.00;7.68;;;11.90;96.20;;;;;;6325187;28;20039;-80
2021/12/17 11:51:33;;;;;;;13.07;9.88;;;11.80;96.90;;;;;;6331931;28;20031;-78
2021/12/17 11:54:34;;;;;;;11.63;9.52;;;11.60;97.90;;;;;;6308218;28;20100;-79
2021/12/17 11:57:40;;;;;;;12.65;9.32;;;11.40;99.50;;;;;;6341768;28;20020;-80
2021/12/17 12:00:41;;;;;;;13.90;10.05;;;11.30;99.30;;;;;;6341899;28;20039;-81
2021/12/17 12:03:42;;;;;;;15.15;10.90;;;11.20;99.80;;;;;;6342391;28;20086;-78
2021/12/17 12:06:42;;;;;;;15.13;10.75;;;11.20;99.90;;;;;;6341046;28;20032;-78
2021/12/17 12:09:58;;;;;;;13.77;11.48;;;11.00;99.90;;;;;;6340540;28;20027;-79
2021/12/17 12:13:00;;;;;;;14.80;10.95;;;10.90;99.90;;;;;;6347421;28;20031;-78
2021/12/17 12:16:02;;;;;;;15.45;10.88;;;10.60;99.90;;;;;;6346430;28;20019;-79
2021/12/17 12:19:07;;;;;;;14.40;10.75;;;10.80;99.90;;;;;;6347484;28;20062;-80
2021/12/17 12:22:09;;;;;;;15.40;10.68;;;10.00;99.90;;;;;;6346309;28;20381;-79
2021/12/17 12:25:29;;;;;;;14.38;10.80;;;9.80;99.90;;;;;;6345491;28;20111;-79
2021/12/17 12:28:45;;;;;;;12.40;10.35;;;9.40;99.90;;;;;;6347057;28;20438;-80
2021/12/17 12:31:47;;;;;;;12.98;10.45;;;9.50;99.90;;;;;;6348095;28;20123;-79
2021/12/17 12:34:48;;;;;;;13.77;9.70;;;9.60;99.90;;;;;;6346081;28;20023;-79
2021/12/17 12:38:19;;;;;;;12.23;9.68;;;9.80;99.90;;;;;;6346057;28;20094;-79
2021/12/17 12:41:27;;;;;;;13.00;9.43;;;9.40;99.90;;;;;;6331184;28;20035;-80
2021/12/17 12:44:42;;;;;;;12.70;8.77;;;9.10;99.90;;;;;;6347552;27;20035;-81
2021/12/17 12:47:45;;;;;;;12.00;9.10;;;9.00;99.90;;;;;;6347094;28;20423;-81
2021/12/17 12:50:45;;;;;;;13.02;9.68;;;8.90;99.90;;;;;;6345792;28;20020;-80
2021/12/17 12:54:03;;;;;;;12.38;9.02;;;8.80;99.90;;;;;;6328385;28;20035;-80
2021/12/17 12:57:03;;;;;;;11.57;9.30;;;8.80;99.90;;;;;;6345723;28;20027;-81
2021/12/17 13:00:06;;;;;;;12.60;9.63;;;8.80;99.90;;;;;;6345384;28;20071;-80
2021/12/17 13:03:10;;;;;;;12.38;10.10;;;8.70;99.90;;;;;;6345618;28;20028;-80
2021/12/17 13:06:16;;;;;;;14.32;10.90;;;8.40;99.90;;;;;;6345122;28;20077;-79
2021/12/17 13:09:28;;;;;;;14.43;11.18;;;8.70;99.90;;;;;;6328839;28;20034;-84
2021/12/17 13:12:28;;;;;;;13.60;10.73;;;8.60;99.90;;;;;;6311248;28;20035;-78
2021/12/17 13:22:14;;;;;;;16.08;11.73;;;8.10;99.90;;;;;;6330681;28;20024;-83
2021/12/17 13:25:26;;;;;;;50.30;27.92;;;8.20;99.90;;;;;;6344924;28;20024;-83
2021/12/17 13:28:27;;;;;;;42.77;20.43;;;8.00;99.90;;;;;;6344946;28;20115;-84
2021/12/17 13:31:46;;;;;;;35.28;17.45;;;8.50;99.90;;;;;;6311080;28;20031;-86
2021/12/17 13:34:48;;;;;;;21.15;12.88;;;7.90;99.90;;;;;;6345199;28;20081;-84
2021/12/17 13:37:57;;;;;;;18.00;12.93;;;8.00;99.90;;;;;;6310573;28;20154;-83
2021/12/17 13:40:59;;;;;;;13.85;11.35;;;9.00;99.90;;;;;;6329367;28;20092;-84
2021/12/17 13:43:59;;;;;;;13.18;10.57;;;7.50;99.90;;;;;;6327823;28;20032;-83
2021/12/17 13:47:14;;;;;;;13.75;10.57;;;7.60;99.90;;;;;;6344403;28;20031;-82
2021/12/17 13:50:23;;;;;;;14.70;10.95;;;7.70;99.90;;;;;;6327548;28;20089;-80
2021/12/17 13:53:24;;;;;;;13.75;10.13;;;7.50;99.90;;;;;;6344257;28;20119;-84
2021/12/17 13:56:24;;;;;;;13.98;10.45;;;8.60;99.90;;;;;;6343741;28;20036;-84
2021/12/17 13:59:35;;;;;;;14.77;10.77;;;7.30;99.90;;;;;;6326651;28;20047;-82
2021/12/17 14:02:36;;;;;;;12.25;10.27;;;7.60;99.90;;;;;;6343808;28;20026;-82
2021/12/17 14:05:51;;;;;;;12.82;10.35;;;7.20;99.90;;;;;;6343366;28;20122;-82
2021/12/17 14:08:52;;;;;;;13.13;10.23;;;6.90;99.90;;;;;;6343085;28;20019;-84
2021/12/17 14:11:52;;;;;;;13.05;9.48;;;7.10;99.90;;;;;;6345007;28;20024;-85
2021/12/17 14:14:58;;;;;;;12.10;9.05;;;6.70;99.90;;;;;;6309391;28;20023;-82
2021/12/17 14:18:03;;;;;;;13.20;9.93;;;6.80;99.90;;;;;;6309033;28;20031;-80
2021/12/17 14:21:05;;;;;;;13.25;10.00;;;6.50;99.90;;;;;;6343655;28;20027;-80
2021/12/17 14:24:05;;;;;;;13.43;10.18;;;6.70;99.90;;;;;;6343917;28;20034;-81
2021/12/17 14:27:06;;;;;;;13.90;10.65;;;7.00;99.90;;;;;;6338778;28;20032;-84
2021/12/17 14:30:07;;;;;;;14.10;10.45;;;6.60;99.90;;;;;;6309286;28;20049;-80
2021/12/17 14:33:17;;;;;;;14.40;10.90;;;6.50;99.90;;;;;;6309393;28;20038;-80
2021/12/17 14:36:19;;;;;;;15.60;10.95;;;6.40;99.90;;;;;;6326273;28;20115;-81
2021/12/17 14:39:23;;;;;;;12.82;10.13;;;6.50;99.90;;;;;;6342874;28;20181;-81
2021/12/17 14:42:32;;;;;;;14.52;10.07;;;6.20;99.90;;;;;;6326379;28;20085;-82
2021/12/17 14:45:40;;;;;;;13.68;10.68;;;;;;;;;;6310185;28;20381;-83
2021/12/17 14:48:56;;;;;;;13.40;9.75;;;7.70;99.90;;;;;;6344452;28;20026;-82
2021/12/17 15:02:23;;;;;;;12.43;9.07;;;5.80;99.90;;;;;;6343877;28;20027;-82
2021/12/17 15:05:25;;;;;;;13.48;10.75;;;6.00;99.90;;;;;;6343667;28;20072;-81
2021/12/17 15:08:26;;;;;;;12.80;10.48;;;5.90;99.90;;;;;;6325728;28;20057;-83
2021/12/17 15:11:32;;;;;;;15.23;11.35;;;;;;;;;;6342585;28;20470;-84
2021/12/17 15:14:33;;;;;;;15.50;11.63;;;;;;;;;;6342528;28;20385;-84
2021/12/17 15:17:33;;;;;;;13.63;11.13;;;5.30;99.90;;;;;;6324703;28;20028;-82
2021/12/17 15:20:35;;;;;;;14.63;11.57;;;;;;;;;;6342240;28;20455;-79
2021/12/17 15:23:35;;;;;;;16.92;11.27;;;5.30;99.90;;;;;;6342299;28;20018;-81
2021/12/17 15:26:36;;;;;;;19.38;12.27;;;5.20;99.90;;;;;;6342537;28;20031;-80
2021/12/17 15:29:37;;;;;;;16.17;12.10;;;5.10;99.90;;;;;;6342403;28;20038;-83
2021/12/17 15:32:37;;;;;;;16.70;12.20;;;5.20;99.90;;;;;;6324653;28;20019;-82
2021/12/17 15:35:38;;;;;;;16.40;12.57;;;5.90;99.90;;;;;;6324671;28;20028;-81
2021/12/17 15:38:39;;;;;;;22.00;13.93;;;6.10;99.90;;;;;;6340658;28;20134;-80
2021/12/17 15:41:41;;;;;;;19.08;13.05;;;4.90;99.90;;;;;;6340964;28;20031;-81
2021/12/17 15:44:42;;;;;;;15.82;12.10;;;;;;;;;;6324527;28;20034;-80
2021/12/17 15:47:43;;;;;;;17.88;12.75;;;4.50;99.90;;;;;;6342547;28;20024;-80
2021/12/17 15:50:43;;;;;;;13.20;9.98;;;4.20;99.90;;;;;;6341782;28;20071;-82
2021/12/17 15:53:44;;;;;;;14.10;9.82;;;;;;;;;;6341849;28;20106;-79
2021/12/17 15:56:46;;;;;;;12.68;10.25;;;4.00;99.90;;;;;;6343302;28;20028;-80
2021/12/17 15:59:49;;;;;;;12.30;8.90;;;;;;;;;;6324990;28;20676;-84
2021/12/17 16:02:49;;;;;;;;;;;3.80;99.90;;;;;;6325330;28;20439;-81
2021/12/17 16:05:50;;;;;;;13.65;8.60;;;;;;;;;;6341515;28;19908;-81
2021/12/17 16:08:55;;;;;;;13.13;9.60;;;3.30;99.90;;;;;;6341894;28;20028;-80
2021/12/17 16:12:07;;;;;;;13.18;8.57;;;;;;;;;;6325477;28;20028;-80
2021/12/17 16:21:28;;;;;;;26.23;17.85;;;;;;;;;;6341423;28;20046;-82
2021/12/17 16:24:29;;;;;;;24.02;16.90;;;2.30;99.90;;;;;;6324571;28;20087;-82
2021/12/17 16:27:31;;;;;;;22.75;14.05;;;;;;;;;;6324799;28;20031;-80
2021/12/17 16:30:32;;;;;;;22.60;15.60;;;;;;;;;;6342609;28;20377;-82
2021/12/17 16:33:33;;;;;;;25.05;15.23;;;;;;;;;;6341654;28;20061;-85
2021/12/17 16:36:36;;;;;;;20.15;14.25;;;2.40;99.90;;;;;;6341552;28;20491;-82
2021/12/17 16:39:37;;;;;;;21.48;14.80;;;;;;;;;;6324101;28;20056;-81
2021/12/17 16:42:38;;;;;;;23.23;15.05;;;2.20;99.90;;;;;;6343030;28;20107;-81
2021/12/17 16:45:42;;;;;;;25.27;16.60;;;2.50;99.90;;;;;;6341273;28;20030;-82
2021/12/17 16:48:47;;;;;;;19.27;14.48;;;4.60;99.90;;;;;;6341188;28;20028;-81
2021/12/17 16:51:49;;;;;;;19.73;14.18;;;2.50;99.90;;;;;;6341359;28;20032;-83
2021/12/17 16:54:50;;;;;;;20.13;14.10;;;;;;;;;;6341689;28;20099;-83
2021/12/17 16:57:51;;;;;;;25.83;15.35;;;;;;;;;;6343606;28;20258;-81
2021/12/17 17:00:52;;;;;;;27.23;17.33;;;;;;;;;;6329216;28;20039;-80
2021/12/17 17:03:53;;;;;;;26.95;16.20;;;;;;;;;;6346495;28;20027;-82
2021/12/17 17:06:54;;;;;;;23.35;17.23;;;;;;;;;;6328291;28;20024;-82
2021/12/17 17:09:55;;;;;;;24.40;17.50;;;;;;;;;;6346429;28;20051;-80
2021/12/17 17:13:00;;;;;;;24.67;16.85;;;;;;;;;;6346572;28;20040;-80
2021/12/17 17:16:04;;;;;;;20.58;14.20;;;2.10;99.90;;;;;;6346580;28;20479;-82
2021/12/17 17:19:05;;;;;;;27.55;19.63;;;2.10;99.90;;;;;;6345041;28;20462;-81
2021/12/17 17:22:06;;;;;;;40.58;33.28;;;;;;;;;;6345154;28;20024;-81
2021/12/17 17:25:07;;;;;;;20.60;14.63;;;;;;;;;;6327053;28;20073;-80
2021/12/17 17:28:08;;;;;;;18.45;13.45;;;2.20;99.90;;;;;;6345297;28;20031;-82
2021/12/17 17:31:10;;;;;;;25.08;15.98;;;1.80;99.90;;;;;;6327996;28;20035;-80
2021/12/17 17:34:11;;;;;;;25.50;16.85;;;1.70;99.90;;;;;;6345155;28;20042;-81
2021/12/17 17:37:12;;;;;;;26.75;16.77;;;1.60;99.90;;;;;;6343498;28;20024;-84
2021/12/17 17:40:13;;;;;;;29.02;19.27;;;;;;;;;;6345848;28;20039;-84
2021/12/17 17:43:15;;;;;;;25.13;17.20;;;1.60;99.90;;;;;;6344035;28;20023;-84
2021/12/17 17:46:16;;;;;;;27.88;16.25;;;;;;;;;;6344890;28;20478;-83
2021/12/17 17:49:17;;;;;;;25.10;16.40;;;1.70;99.90;;;;;;6345356;28;20027;-82
2021/12/17 17:52:18;;;;;;;23.38;15.63;;;;;;;;;;6327263;28;20118;-90
2021/12/17 17:55:19;;;;;;;22.83;15.02;;;;;;;;;;6327745;28;20020;-87
2021/12/17 17:58:20;;;;;;;21.02;14.60;;;1.40;99.90;;;;;;6326106;28;20402;-84
2021/12/17 18:01:21;;;;;;;69.35;40.40;;;1.60;99.90;;;;;;6344403;28;20035;-87
2021/12/17 18:04:21;;;;;;;25.00;18.38;;;1.60;99.90;;;;;;6310297;28;20661;-85
2021/12/17 18:07:22;;;;;;;25.55;16.95;;;1.80;99.90;;;;;;6344552;28;20032;-83
2021/12/17 18:10:23;;;;;;;22.38;14.93;;;;;;;;;;6309681;28;20450;-83
2021/12/17 18:13:25;;;;;;;21.60;14.60;;;1.60;99.90;;;;;;6343240;28;20038;-80
2021/12/17 18:16:26;;;;;;;24.83;15.90;;;;;;;;;;6343553;28;20039;-81
2021/12/17 18:19:27;;;;;;;20.27;13.80;;;1.60;99.90;;;;;;6343750;28;20293;-82
2021/12/17 18:22:28;;;;;;;24.70;16.88;;;;;;;;;;6326528;28;20441;-81
2021/12/17 18:25:28;;;;;;;38.22;20.95;;;1.40;99.90;;;;;;6343387;28;20031;-79
2021/12/17 18:28:29;;;;;;;27.13;17.08;;;1.50;99.90;;;;;;6343858;28;20027;-82
2021/12/17 18:31:30;;;;;;;18.27;13.45;;;;;;;;;;6343637;28;20106;-83
2021/12/17 18:34:31;;;;;;;35.35;22.08;;;;;;;;;;6343294;28;20031;-81
2021/12/17 18:37:32;;;;;;;29.90;18.02;;;1.80;99.90;;;;;;6344636;28;20096;-81
2021/12/17 18:40:40;;;;;;;21.17;14.48;;;;;;;;;;6326041;28;20039;-81
2021/12/17 18:47:02;;;;;;;39.55;26.52;;;1.00;99.90;;;;;;6344089;28;20027;-81
2021/12/17 18:50:03;;;;;;;32.40;23.70;;;;;;;;;;6343587;28;20015;-83
2021/12/17 18:53:05;;;;;;;39.70;23.90;;;;;;;;;;6342467;28;20022;-82
2021/12/17 18:56:07;;;;;;;35.67;24.45;;;;;;;;;;6341840;28;20032;-81
2021/12/17 18:59:09;;;;;;;33.63;22.30;;;0.90;99.90;;;;;;6325262;28;20161;-81
2021/12/17 19:02:10;;;;;;;;;;;0.80;99.90;;;;;;6325821;28;20080;-80
2021/12/17 19:05:11;;;;;;;31.73;18.42;;;;;;;;;;6342355;28;19908;-81
2021/12/17 19:08:14;;;;;;;31.73;19.35;;;;;;;;;;6342574;28;20023;-81
2021/12/17 19:11:14;;;;;;;;;;;0.70;99.90;;;;;;6341542;28;20116;-81
2021/12/17 19:14:15;;;;;;;25.17;16.52;;;;;;;;;;6325242;28;19982;-82
2021/12/17 19:17:16;;;;;;;22.88;16.25;;;;;;;;;;6341184;28;20107;-82
2021/12/17 19:20:27;;;;;;;24.73;16.08;;;;;;;;;;6342834;28;20046;-81
2021/12/17 19:23:29;;;;;;;25.65;16.60;;;;;;;;;;6343542;28;20028;-83
2021/12/17 19:26:30;;;;;;;28.17;18.33;;;0.40;99.90;;;;;;6342549;28;20389;-85
2021/12/17 19:29:31;;;;;;;28.10;17.20;;;;;;;;;;6342414;28;20055;-83
2021/12/17 19:32:32;;;;;;;27.15;18.48;;;;;;;;;;6342413;28;20055;-86